Time;durP1;ratioP1;P1;durP2;ratioP2;P2;SDS_P1;SDS_P2;PMS_P1;PMS_P2;Temp;Humidity;BMP_temperature;BMP_pressure;BME280_temperature;BME280_humidity;BME280_pressure;Samples;Min_cycle;Max_cycle;Signal;HPM_P1;HPM_P2
2023/07/06 00:01:15;;;;;;;;;;;;;;;13.3;81.8916;101527.9;;;;-71
2023/07/06 00:06:18;;;;;;;;;;;;;;;13.35;82.46777;101532.5;;;;-70
2023/07/06 00:11:15;;;;;;;;;;;;;;;13.33;82.54004;101537.2;;;;-71
2023/07/06 00:16:16;;;;;;;;;;;;;;;13.34;82.52344;101539.7;;;;-70
2023/07/06 00:21:15;;;;;;;;;;;;;;;13.3;82.37012;101544.5;;;;-70
2023/07/06 00:21:45;;;;;;;0.2;0.1;;;;;;;;;;;;;-69
2023/07/06 00:26:20;;;;;;;;;;;;;;;13.29;82.25879;101543.9;;;;-69
2023/07/06 00:31:21;;;;;;;;;;;;;;;13.27;82.29688;101539.8;;;;-70
2023/07/06 00:36:15;;;;;;;;;;;;;;;13.27;81.89746;101540.5;;;;-71
2023/07/06 00:41:16;;;;;;;;;;;;;;;13.25;81.75879;101538.5;;;;-70
2023/07/06 00:46:16;;;;;;;;;;;;;;;13.29;81.68945;101541;;;;-70
2023/07/06 00:51:18;;;;;;;;;;;;;;;13.32;81.70605;101546.9;;;;-70
2023/07/06 00:51:48;;;;;;;0.2;0.1;;;;;;;;;;;;;-71
2023/07/06 00:56:17;;;;;;;;;;;;;;;13.32;81.52734;101543.6;;;;-70
2023/07/06 01:01:16;;;;;;;;;;;;;;;13.35;81.44336;101546.7;;;;-69
2023/07/06 01:06:17;;;;;;;;;;;;;;;13.37;81.4375;101543.9;;;;-70
2023/07/06 01:11:15;;;;;;;;;;;;;;;13.36;81.83496;101544.4;;;;-70
2023/07/06 01:16:18;;;;;;;;;;;;;;;13.37;81.4707;101542.2;;;;-71
2023/07/06 01:21:18;;;;;;;;;;;;;;;13.36;81.88086;101537.8;;;;-71
2023/07/06 01:21:51;;;;;;;0.2;0.1;;;;;;;;;;;;;-71
2023/07/06 01:26:28;;;;;;;;;;;;;;;13.36;81.20215;101537.6;;;;-71
2023/07/06 01:31:26;;;;;;;;;;;;;;;13.36;81.6123;101534.2;;;;-70
2023/07/06 01:36:21;;;;;;;;;;;;;;;13.34;81.51074;101531.8;;;;-71
2023/07/06 01:41:15;;;;;;;;;;;;;;;13.33;81.40723;101535.8;;;;-70
2023/07/06 01:46:15;;;;;;;;;;;;;;;13.33;81.92969;101534.5;;;;-71
2023/07/06 01:51:21;;;;;;;;;;;;;;;13.33;81.40527;101528.8;;;;-71
2023/07/06 01:51:54;;;;;;;0.3;0.2;;;;;;;;;;;;;-71
2023/07/06 01:56:20;;;;;;;;;;;;;;;13.33;81.24121;101525.8;;;;-70
2023/07/06 02:01:17;;;;;;;;;;;;;;;13.35;81.30078;101531.5;;;;-71
2023/07/06 02:06:17;;;;;;;;;;;;;;;13.37;82.03906;101532.6;;;;-71
2023/07/06 02:11:17;;;;;;;;;;;;;;;13.38;81.22559;101530.3;;;;-70
2023/07/06 02:16:17;;;;;;;;;;;;;;;13.39;81.12891;101535.5;;;;-71
2023/07/06 02:21:15;;;;;;;;;;;;;;;13.39;81.0293;101528.7;;;;-70
2023/07/06 02:21:53;;;;;;;0.2;0;;;;;;;;;;;;;-70
2023/07/06 02:26:15;;;;;;;;;;;;;;;13.36;80.57813;101527.1;;;;-72
2023/07/06 02:31:15;;;;;;;;;;;;;;;13.36;80.56543;101529.8;;;;-70
2023/07/06 02:36:16;;;;;;;;;;;;;;;13.32;80.41406;101526.6;;;;-71
2023/07/06 02:41:15;;;;;;;;;;;;;;;13.32;80.48145;101525.6;;;;-70
2023/07/06 02:46:19;;;;;;;;;;;;;;;13.29;80.79883;101527.6;;;;-71
2023/07/06 02:51:15;;;;;;;;;;;;;;;13.28;81.01953;101533;;;;-70
2023/07/06 02:51:55;;;;;;;0.2;0;;;;;;;;;;;;;-70
2023/07/06 02:56:15;;;;;;;;;;;;;;;13.24;81.55859;101538.5;;;;-71
2023/07/06 03:01:18;;;;;;;;;;;;;;;13.24;81.40137;101542.3;;;;-70
2023/07/06 03:06:16;;;;;;;;;;;;;;;13.2;81.97266;101543.8;;;;-72
2023/07/06 03:11:16;;;;;;;;;;;;;;;13.19;82.4834;101540.5;;;;-71
2023/07/06 03:16:15;;;;;;;;;;;;;;;13.14;82.00586;101544.1;;;;-71
2023/07/06 03:21:18;;;;;;;;;;;;;;;13.11;81.56836;101541.7;;;;-70
2023/07/06 03:22:00;;;;;;;0.2;0.1;;;;;;;;;;;;;-71
2023/07/06 03:26:15;;;;;;;;;;;;;;;13.11;81.96777;101541.7;;;;-71
2023/07/06 03:31:15;;;;;;;;;;;;;;;13.07;81.64844;101544.9;;;;-70
2023/07/06 03:36:16;;;;;;;;;;;;;;;13.05;81.12109;101547.9;;;;-71
2023/07/06 03:41:17;;;;;;;;;;;;;;;13.01;81.05859;101550.1;;;;-71
2023/07/06 03:46:16;;;;;;;;;;;;;;;12.98;81.68652;101546.6;;;;-71
2023/07/06 03:51:16;;;;;;;;;;;;;;;12.97;81.43945;101546;;;;-70
2023/07/06 03:52:02;;;;;;;0.2;0;;;;;;;;;;;;;-70
2023/07/06 03:56:15;;;;;;;;;;;;;;;12.96;80.80371;101552.9;;;;-71
2023/07/06 04:01:17;;;;;;;;;;;;;;;12.96;81.39355;101554.9;;;;-70
2023/07/06 04:06:16;;;;;;;;;;;;;;;12.97;81.77344;101559.3;;;;-70
2023/07/06 04:11:15;;;;;;;;;;;;;;;13;81.76855;101570.5;;;;-69
2023/07/06 04:16:18;;;;;;;;;;;;;;;13.08;81.96191;101570;;;;-69
2023/07/06 04:21:18;;;;;;;;;;;;;;;13.15;82.53027;101569.8;;;;-71
2023/07/06 04:22:02;;;;;;;0.2;0.1;;;;;;;;;;;;;-71
2023/07/06 04:26:15;;;;;;;;;;;;;;;13.22;82.09863;101567.6;;;;-71
2023/07/06 04:31:15;;;;;;;;;;;;;;;13.28;82.43359;101573.8;;;;-71
2023/07/06 04:36:15;;;;;;;;;;;;;;;13.36;82.33789;101581.5;;;;-69
2023/07/06 04:41:16;;;;;;;;;;;;;;;13.4;82.33301;101582.2;;;;-70
2023/07/06 04:46:15;;;;;;;;;;;;;;;13.46;82.80176;101581;;;;-72
2023/07/06 04:51:17;;;;;;;;;;;;;;;13.49;83.11816;101581.4;;;;-70
2023/07/06 04:52:04;;;;;;;0.2;0.1;;;;;;;;;;;;;-71
2023/07/06 04:56:18;;;;;;;;;;;;;;;13.53;82.66699;101585.8;;;;-71
2023/07/06 05:01:15;;;;;;;;;;;;;;;13.57;84.22461;101586.7;;;;-72
2023/07/06 05:06:16;;;;;;;;;;;;;;;13.62;83.23145;101590.8;;;;-71
2023/07/06 05:11:15;;;;;;;;;;;;;;;13.67;84.09863;101595.3;;;;-71
2023/07/06 05:16:15;;;;;;;;;;;;;;;13.72;83.58398;101602;;;;-71
2023/07/06 05:21:15;;;;;;;;;;;;;;;13.8;84.71289;101608.5;;;;-70
2023/07/06 05:22:06;;;;;;;0.2;0;;;;;;;;;;;;;-70
2023/07/06 05:26:15;;;;;;;;;;;;;;;13.92;84.94727;101602.1;;;;-71
2023/07/06 05:31:15;;;;;;;;;;;;;;;14.24;84.82129;101607.8;;;;-70
2023/07/06 05:36:16;;;;;;;;;;;;;;;14.91;83.88867;101608.3;;;;-71
2023/07/06 05:41:15;;;;;;;;;;;;;;;15.57;81.08203;101602.9;;;;-71
2023/07/06 05:46:15;;;;;;;;;;;;;;;16.25;80.58008;101606;;;;-71
2023/07/06 05:51:15;;;;;;;;;;;;;;;16.87;80.07422;101611.3;;;;-71
2023/07/06 05:52:08;;;;;;;0.2;0;;;;;;;;;;;;;-72
2023/07/06 05:56:15;;;;;;;;;;;;;;;17.36;79.69141;101617.3;;;;-71
2023/07/06 06:01:16;;;;;;;;;;;;;;;17.83;78.70508;101620.3;;;;-74
2023/07/06 06:06:15;;;;;;;;;;;;;;;18.2;77.39648;101621.7;;;;-72
2023/07/06 06:11:15;;;;;;;;;;;;;;;18.62;77.00684;101630.5;;;;-71
2023/07/06 06:16:16;;;;;;;;;;;;;;;18.97;76.2666;101636.3;;;;-72
2023/07/06 06:21:15;;;;;;;;;;;;;;;19.18;76.29004;101647;;;;-72
2023/07/06 06:22:11;;;;;;;0.2;0.1;;;;;;;;;;;;;-72
2023/07/06 06:26:15;;;;;;;;;;;;;;;19.45;74.85645;101649.5;;;;-73
2023/07/06 06:31:15;;;;;;;;;;;;;;;19.79;73.98438;101657;;;;-72
2023/07/06 06:36:15;;;;;;;;;;;;;;;20.05;73.67578;101657.6;;;;-71
2023/07/06 06:41:15;;;;;;;;;;;;;;;20.26;73.09863;101667.4;;;;-73
2023/07/06 06:46:16;;;;;;;;;;;;;;;20.51;72.07324;101670.8;;;;-72
2023/07/06 06:51:15;;;;;;;;;;;;;;;20.68;70.68262;101672.2;;;;-72
2023/07/06 06:52:14;;;;;;;0.2;0.1;;;;;;;;;;;;;-72
2023/07/06 06:56:15;;;;;;;;;;;;;;;20.89;69.77246;101679;;;;-74
2023/07/06 07:01:15;;;;;;;;;;;;;;;21.25;69.54297;101675.4;;;;-74
2023/07/06 07:06:17;;;;;;;;;;;;;;;21.4;67.30078;101678.6;;;;-75
2023/07/06 07:11:19;;;;;;;;;;;;;;;21.75;66.30566;101678.7;;;;-73
2023/07/06 07:16:15;;;;;;;;;;;;;;;21.68;66.16992;101682.3;;;;-74
2023/07/06 07:21:19;;;;;;;;;;;;;;;21.81;66.01758;101687.7;;;;-73
2023/07/06 07:22:16;;;;;;;0.2;0;;;;;;;;;;;;;-73
2023/07/06 07:26:16;;;;;;;;;;;;;;;21.97;66.24707;101691.4;;;;-75
2023/07/06 07:31:18;;;;;;;;;;;;;;;22.05;64.90137;101696.6;;;;-74
2023/07/06 07:36:16;;;;;;;;;;;;;;;21.96;63.64453;101699.1;;;;-74
2023/07/06 07:41:18;;;;;;;;;;;;;;;22.19;63.89453;101697.1;;;;-74
2023/07/06 07:46:16;;;;;;;;;;;;;;;22.45;62.89258;101699.3;;;;-74
2023/07/06 07:51:16;;;;;;;;;;;;;;;22.26;63.04883;101702.2;;;;-75
2023/07/06 07:52:20;;;;;;;0.2;0;;;;;;;;;;;;;-75
2023/07/06 07:56:16;;;;;;;;;;;;;;;22.4;63.23828;101700.5;;;;-73
2023/07/06 08:01:17;;;;;;;;;;;;;;;22.6;61.94043;101709.5;;;;-73
2023/07/06 08:06:20;;;;;;;;;;;;;;;22.68;60.50977;101711.8;;;;-73
2023/07/06 08:11:20;;;;;;;;;;;;;;;22.76;60.30371;101709.7;;;;-73
2023/07/06 08:16:16;;;;;;;;;;;;;;;23;60.47461;101716.6;;;;-74
2023/07/06 08:21:17;;;;;;;;;;;;;;;23.21;60.14746;101724.3;;;;-75
2023/07/06 08:22:24;;;;;;;0.2;0.1;;;;;;;;;;;;;-72
2023/07/06 08:26:15;;;;;;;;;;;;;;;23.45;59.95117;101730.7;;;;-74
2023/07/06 08:31:19;;;;;;;;;;;;;;;23.63;59.85938;101736.9;;;;-74
2023/07/06 08:36:16;;;;;;;;;;;;;;;23.84;58.87598;101739.7;;;;-74
2023/07/06 08:41:21;;;;;;;;;;;;;;;23.98;58.36719;101741.3;;;;-73
2023/07/06 08:46:15;;;;;;;;;;;;;;;24.15;58.17188;101750.1;;;;-73
2023/07/06 08:51:22;;;;;;;;;;;;;;;24.26;57.94434;101743.1;;;;-76
2023/07/06 08:52:28;;;;;;;0.3;0.1;;;;;;;;;;;;;-73
2023/07/06 08:56:18;;;;;;;;;;;;;;;24.41;58.02051;101744.6;;;;-73
2023/07/06 09:01:20;;;;;;;;;;;;;;;24.55;57.03809;101748.1;;;;-73
2023/07/06 09:06:18;;;;;;;;;;;;;;;24.73;56.30078;101752.4;;;;-74
2023/07/06 09:11:15;;;;;;;;;;;;;;;24.53;54.81543;101758.6;;;;-74
2023/07/06 09:16:18;;;;;;;;;;;;;;;24.18;54.37012;101760.2;;;;-75
2023/07/06 09:21:17;;;;;;;;;;;;;;;23.85;54.28418;101770.9;;;;-73
2023/07/06 09:22:32;;;;;;;0.2;0;;;;;;;;;;;;;-73
2023/07/06 09:26:20;;;;;;;;;;;;;;;23.6;54.93066;101764.4;;;;-74
2023/07/06 09:31:21;;;;;;;;;;;;;;;23.72;55.45117;101768.3;;;;-73
2023/07/06 09:36:18;;;;;;;;;;;;;;;24.07;54.79395;101770.5;;;;-73
2023/07/06 09:41:25;;;;;;;;;;;;;;;24.33;53.66309;101766.7;;;;-74
2023/07/06 09:46:15;;;;;;;;;;;;;;;24.52;52.9834;101773.6;;;;-74
2023/07/06 09:51:19;;;;;;;;;;;;;;;24.62;51.94629;101777.6;;;;-73
2023/07/06 09:52:41;;;;;;;0.3;0.1;;;;;;;;;;;;;-74
2023/07/06 09:56:16;;;;;;;;;;;;;;;24.76;51.61816;101782.3;;;;-73
2023/07/06 10:01:18;;;;;;;;;;;;;;;24.88;51.51563;101784;;;;-72
2023/07/06 10:06:22;;;;;;;;;;;;;;;24.89;51.12598;101794;;;;-74
2023/07/06 10:11:17;;;;;;;;;;;;;;;25.06;50.99414;101794.2;;;;-74
2023/07/06 10:16:22;;;;;;;;;;;;;;;25.15;50.53223;101804.8;;;;-73
2023/07/06 10:21:21;;;;;;;;;;;;;;;24.79;51.09082;101805.7;;;;-75
2023/07/06 10:22:47;;;;;;;0.2;0;;;;;;;;;;;;;-75
2023/07/06 10:26:19;;;;;;;;;;;;;;;24.81;51.35742;101799.2;;;;-73
2023/07/06 10:31:17;;;;;;;;;;;;;;;24.91;50.66602;101799.8;;;;-74
2023/07/06 10:36:16;;;;;;;;;;;;;;;24.96;49.99121;101806;;;;-74
2023/07/06 10:41:34;;;;;;;;;;;;;;;25.15;49.79297;101807.2;;;;-73
2023/07/06 10:46:30;;;;;;;;;;;;;;;25.51;50.17871;101809.2;;;;-73
2023/07/06 10:51:24;;;;;;;;;;;;;;;25.82;49.9834;101814.1;;;;-74
2023/07/06 10:52:46;;;;;;;0.6;0.2;;;;;;;;;;;;;-73
2023/07/06 10:56:21;;;;;;;;;;;;;;;25.78;48.92676;101821.3;;;;-72
2023/07/06 11:01:20;;;;;;;;;;;;;;;25.75;49.01563;101828.2;;;;-75
2023/07/06 11:06:18;;;;;;;;;;;;;;;25.59;48.21094;101831.5;;;;-73
2023/07/06 11:11:20;;;;;;;;;;;;;;;25.66;48.84473;101837.3;;;;-73
2023/07/06 11:16:20;;;;;;;;;;;;;;;25.85;48.98047;101845;;;;-74
2023/07/06 11:21:21;;;;;;;;;;;;;;;25.93;50.44629;101841.2;;;;-72
2023/07/06 11:22:52;;;;;;;0.2;0;;;;;;;;;;;;;-73
2023/07/06 11:26:26;;;;;;;;;;;;;;;26.09;50.12793;101833.2;;;;-74
2023/07/06 11:31:25;;;;;;;;;;;;;;;26.24;51.13965;101837.9;;;;-73
2023/07/06 11:36:20;;;;;;;;;;;;;;;26.38;48.94531;101837.3;;;;-73
2023/07/06 11:41:26;;;;;;;;;;;;;;;26.34;50.15527;101836;;;;-74
2023/07/06 11:46:25;;;;;;;;;;;;;;;26.37;49.8125;101852.8;;;;-73
2023/07/06 11:51:15;;;;;;;;;;;;;;;26.21;50.02734;101846.5;;;;-74
2023/07/06 11:53:09;;;;;;;0.2;0;;;;;;;;;;;;;-72
2023/07/06 11:56:33;;;;;;;;;;;;;;;26.13;50.30566;101848.8;;;;-73
2023/07/06 12:01:31;;;;;;;;;;;;;;;26.15;50.84082;101851;;;;-73
2023/07/06 12:06:18;;;;;;;;;;;;;;;26.14;49.20801;101849.3;;;;-72
2023/07/06 12:11:19;;;;;;;;;;;;;;;26.18;48.14844;101850.2;;;;-73
2023/07/06 12:16:18;;;;;;;;;;;;;;;26.4;48.86621;101857.3;;;;-74
2023/07/06 12:21:21;;;;;;;;;;;;;;;26.45;47.14551;101857.9;;;;-74
2023/07/06 12:23:02;;;;;;;0.2;0;;;;;;;;;;;;;-73
2023/07/06 12:26:17;;;;;;;;;;;;;;;26.56;48.55957;101863.6;;;;-73
2023/07/06 12:31:15;;;;;;;;;;;;;;;26.78;48.4668;101874;;;;-74
2023/07/06 12:36:16;;;;;;;;;;;;;;;26.79;47.36719;101870.1;;;;-74
2023/07/06 12:41:20;;;;;;;;;;;;;;;26.63;48.28809;101866.1;;;;-73
2023/07/06 12:46:21;;;;;;;;;;;;;;;26.56;46.72852;101866.2;;;;-72
2023/07/06 12:51:21;;;;;;;;;;;;;;;26.41;46.70215;101872.3;;;;-73
2023/07/06 12:53:09;;;;;;;0.2;0;;;;;;;;;;;;;-73
2023/07/06 12:56:20;;;;;;;;;;;;;;;26.71;46.46582;101869.3;;;;-72
2023/07/06 13:01:21;;;;;;;;;;;;;;;26.82;45.52734;101880;;;;-72
2023/07/06 13:06:17;;;;;;;;;;;;;;;26.62;46.24902;101878.8;;;;-73
2023/07/06 13:11:17;;;;;;;;;;;;;;;26.76;46.06445;101883.8;;;;-73
2023/07/06 13:16:18;;;;;;;;;;;;;;;26.92;45.79199;101880.4;;;;-73
2023/07/06 13:21:19;;;;;;;;;;;;;;;27.04;45.90918;101882.5;;;;-74
2023/07/06 13:23:11;;;;;;;0.2;0;;;;;;;;;;;;;-73
2023/07/06 13:26:15;;;;;;;;;;;;;;;27.15;45.65234;101883.8;;;;-72
2023/07/06 13:31:19;;;;;;;;;;;;;;;27.38;46.16406;101876.4;;;;-75
2023/07/06 13:36:22;;;;;;;;;;;;;;;27.52;45.6084;101886.3;;;;-73
2023/07/06 13:41:19;;;;;;;;;;;;;;;27.21;45.08984;101886.8;;;;-73
2023/07/06 13:46:16;;;;;;;;;;;;;;;27.29;45.05078;101887;;;;-74
2023/07/06 13:51:17;;;;;;;;;;;;;;;27.52;45.53906;101885.9;;;;-75
2023/07/06 13:53:17;;;;;;;0.2;0;;;;;;;;;;;;;-73
2023/07/06 13:56:17;;;;;;;;;;;;;;;27.35;43.26758;101882.9;;;;-73
2023/07/06 14:01:17;;;;;;;;;;;;;;;27.59;44.75586;101876.6;;;;-73
2023/07/06 14:06:18;;;;;;;;;;;;;;;27.56;44.25391;101878.8;;;;-73
2023/07/06 14:11:15;;;;;;;;;;;;;;;27.66;45.80859;101886.1;;;;-74
2023/07/06 14:16:15;;;;;;;;;;;;;;;27.78;44.51855;101886.3;;;;-76
2023/07/06 14:21:16;;;;;;;;;;;;;;;27.66;44.32129;101894.3;;;;-74
2023/07/06 14:23:21;;;;;;;0.3;0.1;;;;;;;;;;;;;-72
2023/07/06 14:26:15;;;;;;;;;;;;;;;27.58;43.68555;101883.9;;;;-74
2023/07/06 14:31:15;;;;;;;;;;;;;;;27.5;43.06152;101890.2;;;;-73
2023/07/06 14:36:15;;;;;;;;;;;;;;;27.62;43.94531;101888.3;;;;-73
2023/07/06 14:41:15;;;;;;;;;;;;;;;27.66;43.33301;101893.5;;;;-76
2023/07/06 14:46:15;;;;;;;;;;;;;;;27.77;44.14648;101896.4;;;;-74
2023/07/06 14:51:18;;;;;;;;;;;;;;;27.69;44.25391;101901;;;;-73
2023/07/06 14:53:25;;;;;;;0.2;0;;;;;;;;;;;;;-72
2023/07/06 14:56:16;;;;;;;;;;;;;;;27.52;43.8418;101899.9;;;;-74
2023/07/06 15:01:15;;;;;;;;;;;;;;;27.23;43.47754;101891.2;;;;-73
2023/07/06 15:06:15;;;;;;;;;;;;;;;27.17;44.40137;101890.5;;;;-73
2023/07/06 15:11:16;;;;;;;;;;;;;;;27.03;44.74609;101892.8;;;;-73
2023/07/06 15:16:15;;;;;;;;;;;;;;;26.85;44.79883;101891.1;;;;-73
2023/07/06 15:21:16;;;;;;;;;;;;;;;26.73;43.3252;101892.2;;;;-73
2023/07/06 15:23:30;;;;;;;0.1;0;;;;;;;;;;;;;-73
2023/07/06 15:26:15;;;;;;;;;;;;;;;26.51;45.24023;101888.5;;;;-73
2023/07/06 15:31:15;;;;;;;;;;;;;;;26.38;44.90234;101881.1;;;;-72
2023/07/06 15:36:15;;;;;;;;;;;;;;;26.23;46.21973;101879.4;;;;-72
2023/07/06 15:41:15;;;;;;;;;;;;;;;26.1;46.36816;101878.9;;;;-73
2023/07/06 15:46:15;;;;;;;;;;;;;;;26.02;46.40723;101874.6;;;;-73
2023/07/06 15:51:15;;;;;;;;;;;;;;;25.96;46.87402;101874.2;;;;-74
2023/07/06 15:53:36;;;;;;;0.2;0;;;;;;;;;;;;;-73
2023/07/06 15:56:15;;;;;;;;;;;;;;;26.09;46.05469;101868.4;;;;-72
2023/07/06 16:01:15;;;;;;;;;;;;;;;26.13;46.04688;101864.1;;;;-72
2023/07/06 16:06:15;;;;;;;;;;;;;;;26.29;46.09863;101866.8;;;;-73
2023/07/06 16:11:21;;;;;;;;;;;;;;;26.45;45.11816;101863.5;;;;-72
2023/07/06 16:16:15;;;;;;;;;;;;;;;26.53;44.67383;101861.6;;;;-73
2023/07/06 16:21:15;;;;;;;;;;;;;;;26.59;44.65723;101864.8;;;;-72
2023/07/06 16:23:41;;;;;;;0.2;0;;;;;;;;;;;;;-73
2023/07/06 16:26:16;;;;;;;;;;;;;;;26.58;44.16797;101862.3;;;;-73
2023/07/06 16:31:15;;;;;;;;;;;;;;;26.4;44.45215;101859.8;;;;-73
2023/07/06 16:36:16;;;;;;;;;;;;;;;26.24;44.72656;101858.9;;;;-70
2023/07/06 16:41:15;;;;;;;;;;;;;;;26.07;44.94141;101862.5;;;;-70
2023/07/06 16:46:15;;;;;;;;;;;;;;;25.97;45.16309;101866.4;;;;-71
2023/07/06 16:51:15;;;;;;;;;;;;;;;25.94;45.27637;101865;;;;-72
2023/07/06 16:53:47;;;;;;;0.2;0;;;;;;;;;;;;;-70
2023/07/06 16:56:15;;;;;;;;;;;;;;;25.89;45.33984;101866.3;;;;-69
2023/07/06 17:01:15;;;;;;;;;;;;;;;25.82;45.05469;101865.2;;;;-70
2023/07/06 17:06:16;;;;;;;;;;;;;;;25.64;45.87012;101865.6;;;;-70
2023/07/06 17:11:15;;;;;;;;;;;;;;;25.5;46.19238;101860.5;;;;-71
2023/07/06 17:16:17;;;;;;;;;;;;;;;25.32;45.81445;101859.7;;;;-69
2023/07/06 17:21:15;;;;;;;;;;;;;;;25.14;46.97461;101860.6;;;;-70
2023/07/06 17:23:50;;;;;;;0.2;0;;;;;;;;;;;;;-69
2023/07/06 17:26:15;;;;;;;;;;;;;;;25.04;46.74512;101856.5;;;;-71
2023/07/06 17:31:18;;;;;;;;;;;;;;;24.96;47.16406;101857.7;;;;-71
2023/07/06 17:36:15;;;;;;;;;;;;;;;24.86;47.03809;101858.2;;;;-71
2023/07/06 17:41:15;;;;;;;;;;;;;;;24.72;46.57324;101864.2;;;;-70
2023/07/06 17:46:15;;;;;;;;;;;;;;;24.6;47.22949;101866.3;;;;-71
2023/07/06 17:51:15;;;;;;;;;;;;;;;24.48;47.24023;101864.7;;;;-70
2023/07/06 17:53:55;;;;;;;0.3;0.1;;;;;;;;;;;;;-70
2023/07/06 17:56:15;;;;;;;;;;;;;;;24.38;47.54199;101870.3;;;;-69
2023/07/06 18:01:15;;;;;;;;;;;;;;;24.26;47.49414;101873.2;;;;-70
2023/07/06 18:06:16;;;;;;;;;;;;;;;24.16;47.86328;101878.4;;;;-71
2023/07/06 18:11:15;;;;;;;;;;;;;;;24.05;47.59766;101882.9;;;;-70
2023/07/06 18:16:15;;;;;;;;;;;;;;;23.95;47.91016;101885.9;;;;-69
2023/07/06 18:21:15;;;;;;;;;;;;;;;23.84;48.1748;101891.3;;;;-70
2023/07/06 18:24:00;;;;;;;0.2;0;;;;;;;;;;;;;-69
2023/07/06 18:26:15;;;;;;;;;;;;;;;23.73;48.35938;101889.1;;;;-69
2023/07/06 18:31:15;;;;;;;;;;;;;;;23.58;48.49316;101887.4;;;;-72
2023/07/06 18:36:15;;;;;;;;;;;;;;;23.44;48.5;101890.8;;;;-72
2023/07/06 18:41:15;;;;;;;;;;;;;;;23.26;48.16992;101891.1;;;;-72
2023/07/06 18:46:15;;;;;;;;;;;;;;;23.06;48.4707;101892.8;;;;-72
2023/07/06 18:51:15;;;;;;;;;;;;;;;22.86;48.58691;101902.9;;;;-71
2023/07/06 18:54:04;;;;;;;0.2;0;;;;;;;;;;;;;-71
2023/07/06 18:56:15;;;;;;;;;;;;;;;22.68;48.92383;101901.4;;;;-72
2023/07/06 19:01:15;;;;;;;;;;;;;;;22.5;49.01758;101896.7;;;;-73
2023/07/06 19:06:15;;;;;;;;;;;;;;;22.32;49.03223;101896.6;;;;-75
2023/07/06 19:11:16;;;;;;;;;;;;;;;22.16;48.36133;101899.6;;;;-74
2023/07/06 19:16:16;;;;;;;;;;;;;;;21.99;48.53711;101902.7;;;;-72
2023/07/06 19:21:15;;;;;;;;;;;;;;;21.82;48.54297;101904;;;;-72
2023/07/06 19:24:08;;;;;;;0.3;0.2;;;;;;;;;;;;;-72
2023/07/06 19:26:15;;;;;;;;;;;;;;;21.64;48.71777;101913;;;;-72
2023/07/06 19:31:15;;;;;;;;;;;;;;;21.47;48.57324;101915.8;;;;-71
2023/07/06 19:36:15;;;;;;;;;;;;;;;21.29;48.55371;101919;;;;-72
2023/07/06 19:41:16;;;;;;;;;;;;;;;21.09;48.7041;101924.8;;;;-72
2023/07/06 19:46:15;;;;;;;;;;;;;;;20.91;48.93555;101932.3;;;;-71
2023/07/06 19:51:19;;;;;;;;;;;;;;;20.74;49.16797;101936.9;;;;-71
2023/07/06 19:54:12;;;;;;;0.2;0;;;;;;;;;;;;;-72
2023/07/06 19:56:15;;;;;;;;;;;;;;;20.53;48.99707;101936.8;;;;-72
2023/07/06 20:01:16;;;;;;;;;;;;;;;20.32;48.9502;101945.4;;;;-71
2023/07/06 20:06:15;;;;;;;;;;;;;;;20.13;49.67188;101951;;;;-72
2023/07/06 20:11:15;;;;;;;;;;;;;;;19.94;49.66113;101956.1;;;;-72
2023/07/06 20:16:15;;;;;;;;;;;;;;;19.76;49.56152;101957.8;;;;-72
2023/07/06 20:21:15;;;;;;;;;;;;;;;19.56;49.72266;101957.5;;;;-72
2023/07/06 20:24:16;;;;;;;0.2;0.1;;;;;;;;;;;;;-73
2023/07/06 20:26:15;;;;;;;;;;;;;;;19.38;49.92871;101960.6;;;;-71
2023/07/06 20:31:15;;;;;;;;;;;;;;;19.2;50.3418;101968.1;;;;-73
2023/07/06 20:36:15;;;;;;;;;;;;;;;19.04;50.45996;101969.4;;;;-72
2023/07/06 20:41:15;;;;;;;;;;;;;;;18.87;50.55566;101969.9;;;;-74
2023/07/06 20:46:15;;;;;;;;;;;;;;;18.73;50.70898;101973.5;;;;-71
2023/07/06 20:51:15;;;;;;;;;;;;;;;18.59;51.05762;101978.9;;;;-72
2023/07/06 20:54:19;;;;;;;0.5;0.3;;;;;;;;;;;;;-72
2023/07/06 20:56:15;;;;;;;;;;;;;;;18.48;51.04492;101979;;;;-69
2023/07/06 21:01:15;;;;;;;;;;;;;;;18.31;51.13965;101981.3;;;;-70
2023/07/06 21:06:15;;;;;;;;;;;;;;;18.17;51.52051;101989.5;;;;-68
2023/07/06 21:11:15;;;;;;;;;;;;;;;18.03;51.68652;101990.3;;;;-71
2023/07/06 21:16:25;;;;;;;;;;;;;;;17.9;51.88672;101987.7;;;;-70
2023/07/06 21:21:15;;;;;;;;;;;;;;;17.78;51.96289;101984.6;;;;-70
2023/07/06 21:24:22;;;;;;;0.2;0;;;;;;;;;;;;;-70
2023/07/06 21:26:15;;;;;;;;;;;;;;;17.67;52.18848;101987;;;;-70
2023/07/06 21:31:15;;;;;;;;;;;;;;;17.58;52.30176;101989.5;;;;-69
2023/07/06 21:36:16;;;;;;;;;;;;;;;17.49;52.37109;101990.6;;;;-70
2023/07/06 21:41:15;;;;;;;;;;;;;;;17.37;52.61621;101996;;;;-69
2023/07/06 21:46:15;;;;;;;;;;;;;;;17.26;52.79688;102000.2;;;;-69
2023/07/06 21:51:16;;;;;;;;;;;;;;;17.17;52.91113;101999.2;;;;-69
2023/07/06 21:54:25;;;;;;;0.2;0.1;;;;;;;;;;;;;-70
2023/07/06 21:56:17;;;;;;;;;;;;;;;17.08;53.09375;101999;;;;-71
2023/07/06 22:01:16;;;;;;;;;;;;;;;17.04;53.03125;102004.6;;;;-69
2023/07/06 22:06:17;;;;;;;;;;;;;;;16.95;53.04297;102006;;;;-72
2023/07/06 22:11:16;;;;;;;;;;;;;;;16.88;53.14844;102010;;;;-70
2023/07/06 22:16:15;;;;;;;;;;;;;;;16.82;53.50195;102013.5;;;;-70
2023/07/06 22:21:15;;;;;;;;;;;;;;;16.78;53.52051;102012.3;;;;-70
2023/07/06 22:24:27;;;;;;;0.2;0.1;;;;;;;;;;;;;-70
2023/07/06 22:26:15;;;;;;;;;;;;;;;16.68;53.61035;102016.8;;;;-70
2023/07/06 22:31:16;;;;;;;;;;;;;;;16.56;53.71973;102014.3;;;;-70
2023/07/06 22:36:15;;;;;;;;;;;;;;;16.52;53.82813;102011.2;;;;-69
2023/07/06 22:41:15;;;;;;;;;;;;;;;16.48;53.7334;102013.8;;;;-69
2023/07/06 22:46:15;;;;;;;;;;;;;;;16.42;53.89453;102012.5;;;;-69
2023/07/06 22:51:15;;;;;;;;;;;;;;;16.37;54.2959;102019.2;;;;-70
2023/07/06 22:54:30;;;;;;;0.2;0;;;;;;;;;;;;;-68
2023/07/06 22:56:15;;;;;;;;;;;;;;;16.33;54.25684;102020.2;;;;-69
2023/07/06 23:01:22;;;;;;;;;;;;;;;16.29;54.80566;102016.8;;;;-71
2023/07/06 23:06:15;;;;;;;;;;;;;;;16.26;54.50781;102019.9;;;;-69
2023/07/06 23:11:15;;;;;;;;;;;;;;;16.2;54.9082;102020.4;;;;-69
2023/07/06 23:16:17;;;;;;;;;;;;;;;16.19;55.30078;102019.4;;;;-69
2023/07/06 23:21:17;;;;;;;;;;;;;;;16.13;54.89746;102018.6;;;;-70
2023/07/06 23:24:34;;;;;;;0.2;0.1;;;;;;;;;;;;;-69
2023/07/06 23:26:16;;;;;;;;;;;;;;;16.09;55.17578;102020.6;;;;-69
2023/07/06 23:31:15;;;;;;;;;;;;;;;16.01;55.57324;102023;;;;-70
2023/07/06 23:36:17;;;;;;;;;;;;;;;15.96;55.37402;102022.1;;;;-70
2023/07/06 23:41:15;;;;;;;;;;;;;;;15.95;55.47363;102018.5;;;;-69
2023/07/06 23:46:18;;;;;;;;;;;;;;;15.85;55.34961;102019.5;;;;-70
2023/07/06 23:51:15;;;;;;;;;;;;;;;15.76;55.5293;102010.5;;;;-70
2023/07/06 23:54:36;;;;;;;0.2;0;;;;;;;;;;;;;-70
2023/07/06 23:56:15;;;;;;;;;;;;;;;15.67;55.94727;102010.7;;;;-70
